createdAt,value
2022-10-23T00:00:19.761Z,30.202
2022-10-23T00:05:19.526Z,30.202
2022-10-23T00:10:19.626Z,30.202
2022-10-23T00:15:19.595Z,30.200
2022-10-23T00:20:19.446Z,30.200
2022-10-23T00:25:19.500Z,30.200
2022-10-23T00:30:19.422Z,30.202
2022-10-23T00:35:19.587Z,30.202
2022-10-23T00:40:19.498Z,30.202
2022-10-23T00:45:16.528Z,30.203
2022-10-23T00:50:16.588Z,30.203
2022-10-23T00:55:19.537Z,30.203
2022-10-23T01:00:19.518Z,30.204
2022-10-23T01:05:19.620Z,30.204
2022-10-23T01:10:19.729Z,30.204
2022-10-23T01:15:19.629Z,30.206
2022-10-23T01:20:19.556Z,30.206
2022-10-23T01:25:19.644Z,30.206
2022-10-23T01:30:19.679Z,30.211
2022-10-23T01:35:19.569Z,30.211
2022-10-23T01:40:16.505Z,30.211
2022-10-23T01:45:16.659Z,30.214
2022-10-23T01:50:19.676Z,30.214
2022-10-23T01:55:19.750Z,30.214
2022-10-23T02:00:19.668Z,30.218
2022-10-23T02:05:19.809Z,30.218
2022-10-23T02:10:19.652Z,30.218
2022-10-23T02:15:19.774Z,30.219
2022-10-23T02:20:19.827Z,30.219
2022-10-23T02:25:19.697Z,30.219
2022-10-23T02:30:19.618Z,30.225
2022-10-23T02:35:16.628Z,30.225
2022-10-23T02:40:19.685Z,30.225
2022-10-23T02:45:19.741Z,30.233
2022-10-23T02:50:19.998Z,30.233
2022-10-23T02:55:19.825Z,30.233
2022-10-23T03:00:19.808Z,30.233
2022-10-23T03:05:19.772Z,30.233
2022-10-23T03:10:19.791Z,30.233
2022-10-23T03:15:19.892Z,30.235
2022-10-23T03:20:19.941Z,30.235
2022-10-23T03:25:16.770Z,30.235
2022-10-23T03:30:16.794Z,30.234
2022-10-23T03:35:19.996Z,30.234
2022-10-23T03:40:19.879Z,30.234
2022-10-23T03:45:19.953Z,30.236
2022-10-23T03:50:19.880Z,30.236
2022-10-23T03:55:19.937Z,30.236
2022-10-23T04:00:19.099Z,30.235
2022-10-23T04:05:19.141Z,30.235
2022-10-23T04:10:19.076Z,30.235
2022-10-23T04:15:19.248Z,30.234
2022-10-23T04:20:19.090Z,30.234
2022-10-23T04:25:19.109Z,30.234
2022-10-23T04:30:19.250Z,30.231
2022-10-23T04:35:16.097Z,30.231
2022-10-23T04:40:16.038Z,30.231
2022-10-23T04:45:19.258Z,30.225
2022-10-23T04:50:19.174Z,30.225
2022-10-23T04:55:19.153Z,30.225
2022-10-23T05:00:19.092Z,30.229
2022-10-23T05:05:19.326Z,30.229
2022-10-23T05:10:19.293Z,30.229
2022-10-23T05:15:19.626Z,30.224
2022-10-23T05:20:19.217Z,30.224
2022-10-23T05:25:19.181Z,30.224
2022-10-23T05:30:16.169Z,30.225
2022-10-23T05:35:19.480Z,30.225
2022-10-23T05:40:19.326Z,30.225
2022-10-23T05:45:19.198Z,30.232
2022-10-23T05:50:19.369Z,30.232
2022-10-23T05:55:19.243Z,30.232
2022-10-23T06:00:19.732Z,30.234
2022-10-23T06:05:19.267Z,30.234
2022-10-23T06:10:19.283Z,30.234
2022-10-23T06:15:19.419Z,30.236
2022-10-23T06:20:16.241Z,30.236
2022-10-23T06:25:16.264Z,30.236
2022-10-23T06:30:19.411Z,30.238
2022-10-23T06:35:19.374Z,30.238
2022-10-23T06:40:19.373Z,30.238
2022-10-23T06:45:19.472Z,30.234
2022-10-23T06:50:19.506Z,30.234
2022-10-23T06:55:19.325Z,30.234
2022-10-23T07:00:19.371Z,30.236
2022-10-23T07:05:19.254Z,30.236
2022-10-23T07:10:19.383Z,30.236
2022-10-23T07:15:16.349Z,30.237
2022-10-23T07:20:16.350Z,30.237
2022-10-23T07:25:19.381Z,30.237
2022-10-23T07:30:19.649Z,30.235
2022-10-23T07:35:19.372Z,30.235
2022-10-23T07:40:19.468Z,30.235
2022-10-23T07:45:19.573Z,30.234
2022-10-23T07:50:19.529Z,30.234
2022-10-23T07:55:19.457Z,30.234
2022-10-23T08:00:19.431Z,30.235
2022-10-23T08:05:19.563Z,30.235
2022-10-23T08:10:16.463Z,30.235
2022-10-23T08:15:16.573Z,30.232
2022-10-23T08:20:19.485Z,30.232
2022-10-23T08:25:24.799Z,30.232
2022-10-23T08:30:19.432Z,30.232
2022-10-23T08:35:19.533Z,30.232
2022-10-23T08:40:19.684Z,30.232
2022-10-23T08:45:19.546Z,30.237
2022-10-23T08:50:19.601Z,30.237
2022-10-23T08:55:19.523Z,30.237
2022-10-23T09:00:16.675Z,30.237
2022-10-23T09:05:16.679Z,30.237
2022-10-23T09:10:19.777Z,30.237
2022-10-23T09:15:19.643Z,30.248
2022-10-23T09:20:19.715Z,30.248
2022-10-23T09:25:19.657Z,30.248
2022-10-23T09:30:19.827Z,30.249
2022-10-23T09:35:19.593Z,30.249
2022-10-23T09:40:19.686Z,30.249
2022-10-23T09:45:19.782Z,30.249
2022-10-23T09:50:19.747Z,30.249
2022-10-23T09:55:16.661Z,30.249
2022-10-23T10:00:16.609Z,30.246
2022-10-23T10:05:19.821Z,30.246
2022-10-23T10:10:19.684Z,30.246
2022-10-23T10:15:19.683Z,30.248
2022-10-23T10:20:19.788Z,30.248
2022-10-23T10:25:19.837Z,30.248
2022-10-23T10:30:19.622Z,30.261
2022-10-23T10:35:19.764Z,30.261
2022-10-23T10:40:19.827Z,30.261
2022-10-23T10:45:19.879Z,30.263
2022-10-23T10:50:16.748Z,30.263
2022-10-23T10:55:19.953Z,30.263
2022-10-23T11:00:19.747Z,30.267
2022-10-23T11:05:19.955Z,30.267
2022-10-23T11:10:19.837Z,30.267
2022-10-23T11:15:20.065Z,30.277
2022-10-23T11:20:19.760Z,30.277
2022-10-23T11:25:19.879Z,30.277
2022-10-23T11:30:19.752Z,30.273
2022-10-23T11:35:19.970Z,30.273
2022-10-23T11:40:16.851Z,30.273
2022-10-23T11:45:16.766Z,30.278
2022-10-23T11:50:20.082Z,30.278
2022-10-23T11:55:19.891Z,30.278
2022-10-23T12:00:19.887Z,30.277
2022-10-23T12:05:19.863Z,30.277
2022-10-23T12:10:19.947Z,30.277
2022-10-23T12:15:19.934Z,30.277
2022-10-23T12:20:19.931Z,30.277
2022-10-23T12:25:20.081Z,30.277
2022-10-23T12:30:19.888Z,30.281
2022-10-23T12:35:16.983Z,30.281
2022-10-23T12:40:17.050Z,30.281
2022-10-23T12:45:20.079Z,30.287
2022-10-23T12:50:19.992Z,30.287
2022-10-23T12:55:20.012Z,30.287
2022-10-23T13:00:20.079Z,30.293
2022-10-23T13:05:20.032Z,30.293
2022-10-23T13:10:20.022Z,30.293
2022-10-23T13:15:20.026Z,30.296
2022-10-23T13:20:20.119Z,30.296
2022-10-23T13:25:20.011Z,30.296
2022-10-23T13:30:16.970Z,30.301
2022-10-23T13:35:23.300Z,30.301
2022-10-23T13:40:20.085Z,30.301
2022-10-23T13:45:20.139Z,30.301
2022-10-23T13:50:20.290Z,30.301
2022-10-23T13:55:20.095Z,30.301
2022-10-23T14:00:20.086Z,30.296
2022-10-23T14:05:20.066Z,30.296
2022-10-23T14:10:23.516Z,30.296
2022-10-23T14:15:20.123Z,30.295
2022-10-23T14:20:19.055Z,30.295
2022-10-23T14:25:16.953Z,30.295
2022-10-23T14:30:20.105Z,30.297
2022-10-23T14:35:20.151Z,30.297
2022-10-23T14:40:20.194Z,30.297
2022-10-23T14:45:20.204Z,30.300
2022-10-23T14:50:20.252Z,30.300
2022-10-23T14:55:20.164Z,30.300
2022-10-23T15:00:20.212Z,30.304
2022-10-23T15:05:20.198Z,30.304
2022-10-23T15:10:20.193Z,30.304
2022-10-23T15:15:17.201Z,30.307
2022-10-23T15:20:17.214Z,30.307
2022-10-23T15:25:20.284Z,30.307
2022-10-23T15:30:20.154Z,30.306
2022-10-23T15:35:20.327Z,30.306
2022-10-23T15:40:20.375Z,30.306
2022-10-23T15:45:20.272Z,30.300
2022-10-23T15:50:20.382Z,30.300
2022-10-23T15:55:20.282Z,30.300
2022-10-23T16:00:20.762Z,30.293
2022-10-23T16:05:17.284Z,30.293
2022-10-23T16:10:17.334Z,30.293
2022-10-23T16:15:20.395Z,30.290
2022-10-23T16:20:20.383Z,30.290
2022-10-23T16:25:20.522Z,30.290
2022-10-23T16:30:20.273Z,30.283
2022-10-23T16:35:20.387Z,30.283
2022-10-23T16:40:20.525Z,30.283
2022-10-23T16:45:20.428Z,30.279
2022-10-23T16:50:20.365Z,30.279
2022-10-23T16:55:20.419Z,30.279
2022-10-23T17:00:17.414Z,30.275
2022-10-23T17:05:17.345Z,30.275
2022-10-23T17:10:20.454Z,30.275
2022-10-23T17:15:20.468Z,30.274
2022-10-23T17:20:20.438Z,30.274
2022-10-23T17:25:20.491Z,30.274
2022-10-23T17:30:20.364Z,30.268
2022-10-23T17:35:20.573Z,30.268
2022-10-23T17:40:24.870Z,30.268
2022-10-23T17:45:20.617Z,30.268
2022-10-23T17:50:20.532Z,30.268
2022-10-23T17:55:17.370Z,30.268
2022-10-23T18:00:20.647Z,30.271
2022-10-23T18:05:20.522Z,30.271
2022-10-23T18:10:20.483Z,30.271
2022-10-23T18:15:20.507Z,30.268
2022-10-23T18:20:20.637Z,30.268
2022-10-23T18:25:20.537Z,30.268
2022-10-23T18:30:20.419Z,30.265
2022-10-23T18:35:20.786Z,30.265
2022-10-23T18:40:23.116Z,30.265
2022-10-23T18:45:17.455Z,30.260
2022-10-23T18:50:18.796Z,30.260
2022-10-23T18:55:18.520Z,30.260
2022-10-23T19:00:18.556Z,30.256
2022-10-23T19:05:15.589Z,30.256
2022-10-23T19:10:18.750Z,30.256
2022-10-23T19:15:18.605Z,30.257
2022-10-23T19:20:18.622Z,30.257
2022-10-23T19:25:15.436Z,30.257
2022-10-23T19:30:17.184Z,30.253
2022-10-23T19:35:18.622Z,30.253
2022-10-23T19:40:18.871Z,30.253
2022-10-23T19:45:18.765Z,30.248
2022-10-23T19:50:18.616Z,30.248
2022-10-23T19:55:18.654Z,30.248
2022-10-23T20:00:18.628Z,30.248
2022-10-23T20:05:15.810Z,30.248
2022-10-23T20:10:18.705Z,30.248
2022-10-23T20:15:18.850Z,30.247
2022-10-23T20:20:15.609Z,30.247
2022-10-23T20:25:15.846Z,30.247
2022-10-23T20:30:18.943Z,30.243
2022-10-23T20:35:15.740Z,30.243
2022-10-23T20:40:15.746Z,30.243
2022-10-23T20:45:19.134Z,30.248
2022-10-23T20:50:18.727Z,30.248
2022-10-23T20:55:18.746Z,30.248
2022-10-23T21:00:18.803Z,30.252
2022-10-23T21:05:18.746Z,30.252
2022-10-23T21:10:15.690Z,30.252
2022-10-23T21:15:15.710Z,30.254
2022-10-23T21:20:18.808Z,30.254
2022-10-23T21:25:15.831Z,30.254
2022-10-23T21:30:18.751Z,30.257
2022-10-23T21:35:18.845Z,30.257
2022-10-23T21:40:18.870Z,30.257
2022-10-23T21:45:15.855Z,30.261
2022-10-23T21:50:18.907Z,30.261
2022-10-23T21:55:18.967Z,30.261
2022-10-23T22:00:18.847Z,30.256
2022-10-23T22:05:15.786Z,30.256
2022-10-23T22:10:15.784Z,30.256
2022-10-23T22:15:18.825Z,30.253
2022-10-23T22:20:18.907Z,30.253
2022-10-23T22:25:15.958Z,30.253
2022-10-23T22:30:15.986Z,30.256
2022-10-23T22:35:18.923Z,30.256
2022-10-23T22:40:18.921Z,30.256
2022-10-23T22:45:18.921Z,30.263
2022-10-23T22:50:18.955Z,30.263
2022-10-23T22:55:15.978Z,30.263
2022-10-23T23:00:15.740Z,30.256
2022-10-23T23:05:15.996Z,30.256
2022-10-23T23:10:18.980Z,30.256
2022-10-23T23:15:18.916Z,30.262
2022-10-23T23:20:19.021Z,30.262
2022-10-23T23:25:19.031Z,30.262
2022-10-23T23:30:19.066Z,30.250
2022-10-23T23:35:19.205Z,30.250
2022-10-23T23:40:18.951Z,30.250
2022-10-23T23:45:18.989Z,30.251
2022-10-23T23:50:15.984Z,30.251
2022-10-23T23:55:16.005Z,30.251
